Terminal Aerodrome Forecast
Issued by NWS Cleveland, OH

Home | Current Version | Previous Version | Graphics & Text | Print | Product List | Glossary On
Versions: 1 2 3 4 5 6 7 8 9 10 11 12 13 14 15 16 17
000
FTUS41 KCLE 281700
TAFCAK
TAF
KCAK 281729Z 2818/0118 13004KT P6SM BKN120 OVC250
     FM010400 12004KT P6SM OVC050
     FM010600 14005KT 4SM -SN SCT015 OVC025
      TEMPO 0107/0111 2SM -SN OVC015
     FM011100 17005KT 3/4SM -SN OVC008=

USA.gov is the U.S. government's official web portal to all federal, state and local government web resources and services.